Time;durP1;ratioP1;P1;durP2;ratioP2;P2;SDS_P1;SDS_P2;PMS_P1;PMS_P2;Temp;Humidity;BMP_temperature;BMP_pressure;BME280_temperature;BME280_humidity;BME280_pressure;Samples;Min_cycle;Max_cycle;Signal;HPM_P1;HPM_P2
2021/12/09 00:02:19;;;;;;;9.90;5.45;;;;;;;-146.64;100.00;39753.28;5067560;28;20020;-76
2021/12/09 00:04:46;;;;;;;16.75;6.20;;;;;;;-146.64;100.00;39788.06;5046242;28;20032;-77
2021/12/09 00:07:11;;;;;;;14.27;5.82;;;;;;;-146.64;100.00;39777.84;5043408;28;20518;-76
2021/12/09 00:09:37;;;;;;;20.40;6.60;;;;;;;-146.64;100.00;39644.78;5071037;28;20162;-76
2021/12/09 00:12:03;;;;;;;15.30;5.07;;;;;;;-146.64;100.00;39734.84;5053640;28;20384;-78
2021/12/09 00:14:33;;;;;;;16.25;5.78;;;;;;;-146.64;100.00;39745.09;5059919;28;20117;-76
2021/12/09 00:17:05;;;;;;;12.07;5.55;;;;;;;-146.64;100.00;39743.03;5061944;28;20048;-76
2021/12/09 00:19:32;;;;;;;17.67;5.68;;;;;;;-146.64;100.00;39753.28;5047862;28;20525;-76
2021/12/09 00:21:58;;;;;;;17.13;6.07;;;;;;;-146.64;100.00;39751.22;5068473;28;20024;-76
2021/12/09 00:24:24;;;;;;;12.52;5.43;;;;;;;-146.64;100.00;39751.22;5047061;28;20657;-76
2021/12/09 00:26:50;;;;;;;11.93;4.85;;;;;;;-146.64;100.00;39755.31;5046823;28;20032;-77
2021/12/09 00:29:16;;;;;;;14.70;5.32;;;;;;;-146.64;100.00;39759.41;5048485;28;20377;-77
2021/12/09 00:31:42;;;;;;;20.25;5.25;;;;;;;-146.64;100.00;39779.88;5064653;28;20025;-76
2021/12/09 00:34:07;;;;;;;19.95;5.43;;;;;;;-146.64;100.00;39773.75;5063458;28;20037;-76
2021/12/09 00:36:39;;;;;;;13.75;5.53;;;;;;;-146.64;100.00;39783.97;5069189;28;20036;-76
2021/12/09 00:39:06;;;;;;;14.45;5.00;;;;;;;-146.64;100.00;39749.19;5059935;28;20024;-76
2021/12/09 00:41:32;;;;;;;23.25;6.63;;;;;;;-146.64;100.00;39759.41;5046138;28;20036;-76
2021/12/09 00:43:58;;;;;;;13.07;4.93;;;;;;;-146.64;100.00;39775.78;5067968;28;20336;-76
2021/12/09 00:46:23;;;;;;;10.48;5.32;;;;;;;-146.64;100.00;39738.94;5051411;28;20027;-76
2021/12/09 00:48:49;;;;;;;10.27;5.38;;;;;;;-146.64;100.00;39755.31;5054741;28;20515;-76
2021/12/09 00:51:15;;;;;;;11.90;5.25;;;;;;;-146.64;100.00;39753.28;5053596;28;20082;-77
2021/12/09 00:53:41;;;;;;;10.45;5.15;;;;;;;-146.64;100.00;39769.66;5052901;28;20559;-77
2021/12/09 00:56:08;;;;;;;13.65;4.88;;;;;;;-146.64;100.00;39677.53;5052992;28;20021;-76
2021/12/09 00:58:34;;;;;;;18.67;5.68;;;;;;;-146.64;100.00;39786.03;5053234;28;20021;-76
2021/12/09 01:00:59;;;;;;;17.42;5.22;;;;;;;-146.64;100.00;39771.69;5054909;28;20032;-76
2021/12/09 01:03:25;;;;;;;14.30;5.57;;;;;;;-146.64;100.00;39749.19;5064179;28;20476;-76
2021/12/09 01:05:50;;;;;;;19.27;5.32;;;;;;;-146.64;100.00;39771.69;5061970;28;20123;-77
2021/12/09 01:08:16;;;;;;;10.18;5.15;;;;;;;-146.64;100.00;39779.88;5040833;28;20028;-76
2021/12/09 01:10:41;;;;;;;14.02;5.30;;;;;;;-146.64;100.00;39808.53;5052610;28;20384;-76
2021/12/09 01:13:08;;;;;;;16.75;5.93;;;;;;;-146.64;100.00;39788.06;5053428;28;20124;-75
2021/12/09 01:15:33;;;;;;;18.27;5.40;;;;;;;-146.64;100.00;39724.63;5060875;28;20035;-76
2021/12/09 01:17:59;;;;;;;17.02;4.95;;;;;;;-146.64;100.00;39792.16;5040236;28;20033;-77
2021/12/09 01:20:26;;;;;;;14.88;5.75;;;;;;;-146.64;100.00;39767.59;5052996;28;20064;-77
2021/12/09 01:22:57;;;;;;;17.95;5.82;;;;;;;-146.64;100.00;39800.34;5046926;28;20571;-77
2021/12/09 01:25:25;;;;;;;12.10;5.10;;;;;;;-146.64;100.00;39792.16;5058197;28;20028;-76
2021/12/09 01:27:53;;;;;;;14.55;5.78;;;;;;;-146.64;100.00;39788.06;5054430;28;20024;-76
2021/12/09 01:30:20;;;;;;;12.07;5.68;;;;;;;-146.64;100.00;39804.44;5064145;28;20021;-77
2021/12/09 01:32:51;;;;;;;10.82;4.85;;;;;;;-146.64;100.00;39759.41;5068838;28;20032;-76
2021/12/09 01:35:19;;;;;;;21.98;6.25;;;;;;;-146.64;100.00;39796.25;5040320;28;20391;-77
2021/12/09 01:37:46;;;;;;;13.57;6.22;;;;;;;-146.64;100.00;39786.03;5048975;28;20231;-76
2021/12/09 01:40:11;;;;;;;16.10;5.40;;;;;;;-146.64;100.00;39755.31;5063256;28;20250;-77
2021/12/09 01:42:37;;;;;;;14.68;5.28;;;;;;;-146.64;100.00;39783.97;5068875;28;20032;-77
2021/12/09 01:45:04;;;;;;;14.60;5.57;;;;;;;-146.64;100.00;39845.38;5054134;28;20032;-76
2021/12/09 01:47:31;;;;;;;12.02;4.85;;;;;;;-146.64;100.00;39804.44;5054643;28;20086;-77
2021/12/09 01:49:56;;;;;;;17.70;3.80;;;;;;;-146.64;100.00;39779.88;5058860;28;20040;-77
2021/12/09 01:52:22;;;;;;;13.02;4.18;;;;;;;-146.64;100.00;39794.22;5064400;28;20094;-77
2021/12/09 01:54:47;;;;;;;19.15;5.00;;;;;;;-146.64;100.00;39792.16;5052562;28;20029;-76
2021/12/09 01:57:13;;;;;;;18.50;5.47;;;;;;;-146.64;100.00;39806.50;5046777;28;20163;-76
2021/12/09 01:59:38;;;;;;;13.73;5.22;;;;;;;-146.64;100.00;39779.88;5060750;28;20017;-77
2021/12/09 02:02:04;;;;;;;15.45;5.10;;;;;;;-146.64;100.00;39812.63;5062641;28;20122;-74
2021/12/09 02:04:29;;;;;;;16.10;5.40;;;;;;;-146.64;100.00;39808.53;5061368;28;20086;-75
2021/12/09 02:06:55;;;;;;;10.93;4.32;;;;;;;-146.64;100.00;39792.16;5066640;28;20086;-75
2021/12/09 02:09:21;;;;;;;19.73;6.50;;;;;;;-146.64;100.00;39802.41;5036539;28;20052;-74
2021/12/09 02:11:46;;;;;;;14.45;5.43;;;;;;;-146.64;100.00;39806.50;5054775;28;20121;-75
2021/12/09 02:14:12;;;;;;;16.95;4.60;;;;;;;-146.64;100.00;39788.06;5059634;28;20365;-74
2021/12/09 02:16:39;;;;;;;17.13;5.07;;;;;;;-146.64;100.00;39734.84;5054954;28;20021;-75
2021/12/09 02:19:05;;;;;;;11.63;4.22;;;;;;;-146.64;100.00;39775.78;5060008;28;20040;-74
2021/12/09 02:21:32;;;;;;;14.57;4.18;;;;;;;-146.64;100.00;39802.41;5061542;28;20056;-74
2021/12/09 02:24:01;;;;;;;14.85;5.20;;;;;;;-146.64;100.00;39804.44;5043675;28;20033;-74
2021/12/09 02:26:30;;;;;;;12.95;4.65;;;;;;;-146.64;100.00;39835.16;5052964;28;20048;-74
2021/12/09 02:28:56;;;;;;;9.88;4.55;;;;;;;-146.64;100.00;39824.91;5076168;28;20025;-74
2021/12/09 02:31:22;;;;;;;13.53;4.63;;;;;;;-146.64;100.00;39804.44;5056492;28;20044;-75
2021/12/09 02:33:48;;;;;;;14.25;4.50;;;;;;;-146.64;100.00;39792.16;5058459;28;20119;-74
2021/12/09 02:36:13;;;;;;;15.02;5.28;;;;;;;-146.64;100.00;39800.34;5041497;28;20490;-74
2021/12/09 02:38:44;;;;;;;15.88;4.63;;;;;;;-146.64;100.00;39800.34;5058000;28;20387;-74
2021/12/09 02:41:15;;;;;;;13.20;5.15;;;;;;;-146.64;100.00;39712.34;5043533;28;20024;-75
2021/12/09 02:43:41;;;;;;;12.00;4.68;;;;;;;-146.64;100.00;39788.06;5061134;28;20524;-74
2021/12/09 02:46:06;;;;;;;17.77;5.23;;;;;;;-146.64;100.00;39808.53;5041929;28;20092;-74
2021/12/09 02:48:31;;;;;;;13.90;4.28;;;;;;;-146.64;100.00;39810.59;5048022;28;20067;-74
2021/12/09 02:50:57;;;;;;;18.92;4.28;;;;;;;-146.64;100.00;39779.88;5047242;28;20450;-73
2021/12/09 02:53:22;;;;;;;22.38;5.07;;;;;;;-146.64;100.00;39775.78;5054399;28;20036;-75
2021/12/09 02:55:47;;;;;;;15.23;4.47;;;;;;;-146.64;100.00;39798.31;5061241;28;20077;-74
2021/12/09 02:58:13;;;;;;;14.10;4.70;;;;;;;-146.64;100.00;39779.88;5052393;28;20082;-74
2021/12/09 03:01:13;;;;;;;20.02;4.30;;;;;;;-146.64;100.00;39810.59;5035158;28;20111;-75
2021/12/09 03:03:47;;;;;;;14.07;4.68;;;;;;;-146.64;100.00;39771.69;5061610;28;20059;-74
2021/12/09 03:06:13;;;;;;;11.60;4.20;;;;;;;-146.64;100.00;39798.31;5052197;28;20399;-74
2021/12/09 03:08:40;;;;;;;18.75;4.82;;;;;;;-146.64;100.00;39802.41;5040573;28;20040;-74
2021/12/09 03:11:08;;;;;;;14.98;4.32;;;;;;;-146.64;100.00;39783.97;5062666;28;20025;-74
2021/12/09 03:13:35;;;;;;;19.75;5.28;;;;;;;-146.64;100.00;39804.44;5062954;28;20101;-74
2021/12/09 03:16:01;;;;;;;20.67;4.67;;;;;;;-146.64;100.00;39804.44;5057564;28;20060;-74
2021/12/09 03:18:27;;;;;;;19.38;4.38;;;;;;;-146.64;100.00;39810.59;5056461;28;20077;-74
2021/12/09 03:20:52;;;;;;;12.57;4.70;;;;;;;-146.64;100.00;39841.28;5052988;28;20036;-74
2021/12/09 03:23:18;;;;;;;18.33;4.22;;;;;;;-146.64;100.00;39841.28;5066117;28;20021;-74
2021/12/09 03:25:43;;;;;;;15.00;4.85;;;;;;;-146.64;100.00;39790.13;5058163;28;20095;-74
2021/12/09 03:28:08;;;;;;;15.55;4.63;;;;;;;-146.64;100.00;39806.50;5054785;28;20104;-74
2021/12/09 03:30:34;;;;;;;21.83;4.65;;;;;;;-146.64;100.00;39824.91;5051591;28;20029;-74
2021/12/09 03:32:59;;;;;;;17.75;4.88;;;;;;;-146.64;100.00;39808.53;5065029;28;20508;-74
2021/12/09 03:35:24;;;;;;;14.55;4.40;;;;;;;-146.64;100.00;39810.59;5056906;28;20031;-74
2021/12/09 03:37:50;;;;;;;14.85;4.80;;;;;;;-146.64;100.00;39718.47;5046941;28;20032;-74
2021/12/09 03:40:15;;;;;;;21.90;5.43;;;;;;;-146.64;100.00;39794.22;5050085;28;20095;-74
2021/12/09 03:42:41;;;;;;;18.00;4.75;;;;;;;-146.64;100.00;39741.00;5057519;28;20078;-74
2021/12/09 03:45:07;;;;;;;20.07;5.10;;;;;;;-146.64;100.00;39802.41;5051630;28;20029;-74
2021/12/09 03:47:34;;;;;;;21.20;5.07;;;;;;;-146.64;100.00;39829.00;5055936;28;20056;-74
2021/12/09 03:50:00;;;;;;;17.30;4.43;;;;;;;-146.64;100.00;39820.81;5062015;28;20031;-74
2021/12/09 03:52:26;;;;;;;16.73;4.90;;;;;;;-146.64;100.00;39786.03;5054832;28;20298;-74
2021/12/09 03:54:52;;;;;;;15.35;4.93;;;;;;;-146.64;100.00;39773.75;5061684;28;20036;-74
2021/12/09 03:57:17;;;;;;;24.23;4.28;;;;;;;-146.64;100.00;39794.22;5063157;28;20042;-74
2021/12/09 03:59:44;;;;;;;16.73;4.80;;;;;;;-146.64;100.00;39779.88;5047564;28;20507;-75
2021/12/09 04:02:10;;;;;;;13.60;5.20;;;;;;;-146.64;100.00;39734.84;5045598;28;20481;-74
2021/12/09 04:04:35;;;;;;;22.73;5.18;;;;;;;-146.64;100.00;39718.47;5056482;28;20077;-74
2021/12/09 04:07:01;;;;;;;23.27;5.28;;;;;;;-146.64;100.00;39794.22;5068743;28;20476;-74
2021/12/09 04:09:28;;;;;;;17.58;5.20;;;;;;;-146.64;100.00;39800.34;5042559;28;20086;-74
2021/12/09 04:11:53;;;;;;;25.42;4.97;;;;;;;-146.64;100.00;39812.63;5033276;28;20025;-74
2021/12/09 04:14:20;;;;;;;16.80;4.15;;;;;;;-146.64;100.00;39808.53;5065557;28;20033;-74
2021/12/09 04:16:46;;;;;;;21.88;5.50;;;;;;;-146.64;100.00;39804.44;5059914;28;20029;-74
2021/12/09 04:19:12;;;;;;;22.95;4.60;;;;;;;-146.64;100.00;39763.50;5061896;28;20033;-74
2021/12/09 04:21:38;;;;;;;14.45;4.28;;;;;;;-146.64;100.00;39824.91;5058345;28;20070;-75
2021/12/09 04:24:07;;;;;;;20.30;4.80;;;;;;;-146.64;100.00;39786.03;5050975;28;20033;-75
2021/12/09 04:26:37;;;;;;;21.80;5.97;;;;;;;-146.64;100.00;39816.72;5053093;28;20036;-74
2021/12/09 04:29:05;;;;;;;10.88;4.25;;;;;;;-146.64;100.00;39851.53;5049988;28;20167;-75
2021/12/09 04:31:30;;;;;;;14.35;4.80;;;;;;;-146.64;100.00;39833.09;5056272;28;20105;-74
2021/12/09 04:33:55;;;;;;;17.17;4.60;;;;;;;-146.64;100.00;39829.00;5065365;28;20054;-75
2021/12/09 04:36:23;;;;;;;20.92;4.95;;;;;;;-146.64;100.00;39826.97;5055184;28;20106;-74
2021/12/09 04:38:49;;;;;;;15.88;4.97;;;;;;;-146.64;100.00;39802.41;5049589;28;20028;-74
2021/12/09 04:41:16;;;;;;;21.88;4.70;;;;;;;-146.64;100.00;39808.53;5071116;28;20020;-74
2021/12/09 04:43:42;;;;;;;18.58;4.55;;;;;;;-146.64;100.00;39804.44;5057112;28;20059;-74
2021/12/09 04:46:09;;;;;;;12.02;4.38;;;;;;;-146.64;100.00;39824.91;5052460;28;20036;-74
2021/12/09 04:48:34;;;;;;;17.05;4.97;;;;;;;-146.64;100.00;39829.00;5047527;28;20029;-75
2021/12/09 04:51:01;;;;;;;9.50;3.63;;;;;;;-146.64;100.00;39783.97;5054695;28;20452;-74
2021/12/09 04:53:26;;;;;;;15.18;4.93;;;;;;;-146.64;100.00;39788.06;5052116;28;20028;-74
2021/12/09 04:55:52;;;;;;;14.32;4.05;;;;;;;-146.64;100.00;39816.72;5048472;28;20472;-74
2021/12/09 04:58:17;;;;;;;24.48;4.43;;;;;;;-146.64;100.00;39808.53;5066889;28;20483;-75
2021/12/09 05:00:43;;;;;;;16.95;3.90;;;;;;;-146.64;100.00;39796.25;5067900;28;20090;-75
2021/12/09 05:03:11;;;;;;;18.13;4.95;;;;;;;-146.64;100.00;39816.72;5044632;28;20047;-74
2021/12/09 05:05:49;;;;;;;10.75;4.53;;;;;;;-146.64;100.00;39814.69;5065700;28;20035;-74
2021/12/09 05:08:17;;;;;;;15.07;4.00;;;;;;;-146.64;100.00;39804.44;5069529;28;20102;-74
2021/12/09 05:10:56;;;;;;;19.02;4.50;;;;;;;-146.64;100.00;39796.25;5069330;28;20020;-74
2021/12/09 05:13:24;;;;;;;13.93;3.50;;;;;;;-146.64;100.00;39816.72;5060916;28;20108;-74
2021/12/09 05:15:50;;;;;;;18.45;3.85;;;;;;;-146.64;100.00;39802.41;5058650;28;20016;-74
2021/12/09 05:18:16;;;;;;;15.57;3.92;;;;;;;-146.64;100.00;39829.00;5052992;28;20035;-74
2021/12/09 05:20:43;;;;;;;10.77;4.13;;;;;;;-146.64;100.00;39831.06;5066329;28;20108;-74
2021/12/09 05:23:10;;;;;;;21.02;4.32;;;;;;;-146.64;100.00;39841.28;5054609;28;20111;-74
2021/12/09 05:25:35;;;;;;;16.85;4.40;;;;;;;-146.64;100.00;39796.25;5040707;28;20123;-74
2021/12/09 05:28:01;;;;;;;16.73;4.07;;;;;;;-146.64;100.00;39829.00;5051691;28;20037;-74
2021/12/09 05:30:38;;;;;;;16.25;4.53;;;;;;;-146.64;100.00;39734.84;5052250;28;20040;-74
2021/12/09 05:33:04;;;;;;;15.65;4.20;;;;;;;-146.64;100.00;39841.28;5056824;28;20028;-74
2021/12/09 05:35:30;;;;;;;17.05;4.18;;;;;;;-146.64;100.00;39831.06;5070591;28;20040;-74
2021/12/09 05:37:56;;;;;;;18.17;4.25;;;;;;;-146.64;100.00;39824.91;5053459;28;20032;-75
2021/12/09 05:40:23;;;;;;;12.40;4.03;;;;;;;-146.64;100.00;39816.72;5050044;28;20024;-74
2021/12/09 05:42:48;;;;;;;9.95;4.50;;;;;;;-146.64;100.00;39841.28;5060523;28;20029;-74
2021/12/09 05:45:14;;;;;;;17.48;3.80;;;;;;;-146.64;100.00;39835.16;5045190;28;20528;-74
2021/12/09 05:47:39;;;;;;;13.75;4.45;;;;;;;-146.64;100.00;39831.06;5055356;28;20025;-74
2021/12/09 05:50:07;;;;;;;17.27;5.53;;;;;;;-146.64;100.00;39806.50;5057450;28;20042;-74
2021/12/09 05:52:34;;;;;;;17.30;3.92;;;;;;;-146.64;100.00;39826.97;5049856;28;20386;-74
2021/12/09 05:54:59;;;;;;;18.45;3.75;;;;;;;-146.64;100.00;39812.63;5066767;28;20032;-74
2021/12/09 05:57:25;;;;;;;19.20;4.47;;;;;;;-146.64;100.00;39857.66;5066072;28;20043;-74
2021/12/09 05:59:53;;;;;;;13.70;3.90;;;;;;;-146.64;100.00;39814.69;5084291;28;20051;-74
2021/12/09 06:02:18;;;;;;;24.02;4.75;;;;;;;-146.64;100.00;39857.66;5063047;28;20020;-75
2021/12/09 06:04:44;;;;;;;19.17;4.90;;;;;;;-146.64;100.00;39818.78;5053195;28;20052;-74
2021/12/09 06:07:10;;;;;;;12.53;4.43;;;;;;;-146.64;100.00;39833.09;5044005;28;20059;-74
2021/12/09 06:09:36;;;;;;;13.27;4.05;;;;;;;-146.64;100.00;39841.28;5061233;28;20024;-74
2021/12/09 06:12:01;;;;;;;13.88;4.05;;;;;;;-146.64;100.00;39843.34;5060744;28;20025;-74
2021/12/09 06:14:27;;;;;;;8.13;4.07;;;;;;;-146.64;100.00;39814.69;5053067;28;20453;-74
2021/12/09 06:16:54;;;;;;;17.90;5.43;;;;;;;-146.64;100.00;39757.38;5055764;28;20100;-75
2021/12/09 06:19:21;;;;;;;14.00;4.00;;;;;;;-146.64;100.00;39818.78;5066788;28;20024;-74
2021/12/09 06:21:46;;;;;;;;;;;;;;;-146.64;100.00;39843.34;5057179;28;20112;-74
2021/12/09 06:24:11;;;;;;;19.60;4.43;;;;;;;-146.64;100.00;39845.38;5061832;28;20336;-74
2021/12/09 06:26:37;;;;;;;17.35;4.07;;;;;;;-146.64;100.00;39831.06;5057447;28;20117;-74
2021/12/09 06:29:05;;;;;;;12.90;3.58;;;;;;;-146.64;100.00;39812.63;5049322;28;20029;-74
2021/12/09 06:31:31;;;;;;;12.75;4.65;;;;;;;-146.64;100.00;39710.28;5055724;28;20029;-74
2021/12/09 06:33:56;;;;;;;17.23;3.65;;;;;;;-146.64;100.00;39818.78;5032661;28;20130;-74
2021/12/09 06:36:22;;;;;;;20.50;4.65;;;;;;;-146.64;100.00;39783.97;5080237;28;20016;-73
2021/12/09 06:38:47;;;;;;;12.02;3.65;;;;;;;-146.64;100.00;39820.81;5059729;28;20468;-74
2021/12/09 06:41:12;;;;;;;21.33;5.63;;;;;;;-146.64;100.00;39837.19;5056195;28;20027;-74
2021/12/09 06:43:40;;;;;;;17.63;4.30;;;;;;;-146.64;100.00;39812.63;5036471;28;20450;-74
2021/12/09 06:46:08;;;;;;;9.77;4.30;;;;;;;-146.64;100.00;39820.81;5050592;28;20020;-74
2021/12/09 06:48:34;;;;;;;26.38;4.60;;;;;;;-146.64;100.00;39833.09;5063673;28;20071;-74
2021/12/09 06:51:02;;;;;;;14.00;4.30;;;;;;;-146.64;100.00;39800.34;5056515;28;20031;-73
2021/12/09 06:53:30;;;;;;;19.48;4.60;;;;;;;-146.64;100.00;39845.38;5054846;28;20752;-74
2021/12/09 06:55:56;;;;;;;18.00;5.57;;;;;;;-146.64;100.00;39857.66;5059265;28;20451;-74
2021/12/09 06:58:23;;;;;;;18.80;5.10;;;;;;;-146.64;100.00;39783.97;5061227;28;20024;-74
2021/12/09 07:00:48;;;;;;;15.57;4.93;;;;;;;-146.64;100.00;39824.91;5059342;28;20024;-74
2021/12/09 07:03:20;;;;;;;18.55;5.00;;;;;;;-146.64;100.00;39824.91;5044174;28;20032;-74
2021/12/09 07:05:46;;;;;;;25.92;4.60;;;;;;;-146.64;100.00;39845.38;5034925;28;20028;-74
2021/12/09 07:08:11;;;;;;;14.90;4.38;;;;;;;-146.64;100.00;39822.88;5062618;28;20043;-74
2021/12/09 07:10:37;;;;;;;16.92;5.45;;;;;;;-146.64;100.00;39829.00;5052169;28;20445;-74
2021/12/09 07:13:04;;;;;;;12.20;4.32;;;;;;;-146.64;100.00;39824.91;5045523;28;20081;-74
2021/12/09 07:15:30;;;;;;;17.58;4.97;;;;;;;-146.64;100.00;39824.91;5038557;28;20021;-74
2021/12/09 07:17:55;;;;;;;16.02;6.18;;;;;;;-146.64;100.00;39845.38;5049990;28;20514;-74
2021/12/09 07:20:23;;;;;;;15.95;5.03;;;;;;;-146.64;100.00;39831.06;5065823;28;20028;-74
2021/12/09 07:22:49;;;;;;;13.57;4.68;;;;;;;-146.64;100.00;39839.25;5057966;28;20029;-73
2021/12/09 07:25:15;;;;;;;19.08;4.88;;;;;;;-146.64;100.00;39857.66;5056404;28;20078;-73
2021/12/09 07:27:40;;;;;;;17.10;5.53;;;;;;;-146.64;100.00;39849.47;5056767;28;20503;-74
2021/12/09 07:30:07;;;;;;;19.75;5.38;;;;;;;-146.64;100.00;39839.25;5048374;28;20029;-74
2021/12/09 07:32:33;;;;;;;14.75;5.30;;;;;;;-146.64;100.00;39878.13;5053256;28;20563;-74
2021/12/09 07:34:58;;;;;;;13.95;6.10;;;;;;;-146.64;100.00;39857.66;5050240;28;20036;-74
2021/12/09 07:37:23;;;;;;;15.25;5.38;;;;;;;-146.64;100.00;39837.19;5042788;28;20106;-74
2021/12/09 07:39:49;;;;;;;20.73;5.32;;;;;;;-146.64;100.00;39824.91;5048206;28;20025;-74
2021/12/09 07:42:15;;;;;;;18.17;5.18;;;;;;;-146.64;100.00;39853.56;5050011;28;20052;-74
2021/12/09 07:44:40;;;;;;;14.55;5.05;;;;;;;-146.64;100.00;39845.38;5069443;28;20034;-74
2021/12/09 07:47:06;;;;;;;17.92;5.25;;;;;;;-146.64;100.00;39874.03;5053619;28;20033;-74
2021/12/09 07:49:31;;;;;;;15.93;4.97;;;;;;;-146.64;100.00;39835.16;5054790;28;20067;-74
2021/12/09 07:51:56;;;;;;;20.65;5.53;;;;;;;-146.64;100.00;39859.72;5053905;28;20550;-74
2021/12/09 07:54:23;;;;;;;18.88;5.43;;;;;;;-146.64;100.00;39853.56;5063937;28;20064;-74
2021/12/09 07:56:48;;;;;;;14.70;5.95;;;;;;;-146.64;100.00;39855.63;5055068;28;20039;-74
2021/12/09 07:59:13;;;;;;;19.15;5.75;;;;;;;-146.64;100.00;39816.72;5051773;28;20456;-74
2021/12/09 08:01:39;;;;;;;12.07;5.18;;;;;;;-146.64;100.00;39872.00;5053932;28;20036;-74
2021/12/09 08:04:05;;;;;;;24.10;5.82;;;;;;;-146.64;100.00;39829.00;5063669;28;20055;-74
2021/12/09 08:06:31;;;;;;;21.50;6.30;;;;;;;-146.64;100.00;39743.03;5052655;28;20480;-73
2021/12/09 08:08:58;;;;;;;22.77;6.40;;;;;;;-146.64;100.00;39794.22;5064371;28;20389;-74
2021/12/09 08:11:26;;;;;;;15.00;5.00;;;;;;;-146.64;100.00;39835.16;5071748;28;20372;-73
2021/12/09 08:13:51;;;;;;;22.98;5.65;;;;;;;-146.64;100.00;39841.28;5065078;28;20040;-74
2021/12/09 08:16:17;;;;;;;18.40;5.80;;;;;;;-146.64;100.00;39874.03;5060107;28;20044;-75
2021/12/09 08:18:54;;;;;;;18.58;5.93;;;;;;;-146.64;100.00;39853.56;5066424;28;20028;-74
2021/12/09 08:21:20;;;;;;;18.40;6.32;;;;;;;-146.64;100.00;39818.78;5063590;28;20434;-74
2021/12/09 08:23:46;;;;;;;14.80;5.35;;;;;;;-146.64;100.00;39843.34;5043679;28;20448;-75
2021/12/09 08:26:11;;;;;;;16.63;6.05;;;;;;;-146.64;100.00;39865.84;5040450;28;20031;-75
2021/12/09 08:28:36;;;;;;;27.35;6.05;;;;;;;-146.64;100.00;39816.72;5057764;28;20039;-75
2021/12/09 08:31:01;;;;;;;14.85;5.65;;;;;;;-146.64;100.00;39849.47;5060680;28;20055;-75
2021/12/09 08:33:27;;;;;;;19.77;5.90;;;;;;;-146.64;100.00;39816.72;5056496;28;20033;-75
2021/12/09 08:35:53;;;;;;;16.60;5.28;;;;;;;-146.64;100.00;39829.00;5055617;28;20032;-74
2021/12/09 08:38:18;;;;;;;12.68;5.13;;;;;;;-146.64;100.00;39788.06;5056490;28;20427;-74
2021/12/09 08:40:45;;;;;;;28.75;6.80;;;;;;;-146.64;100.00;39831.06;5061478;28;20033;-75
2021/12/09 08:43:11;;;;;;;17.98;6.15;;;;;;;-146.64;100.00;39788.06;5062397;28;20120;-75
2021/12/09 08:45:36;;;;;;;21.33;6.55;;;;;;;-146.64;100.00;39824.91;5059001;28;20443;-74
2021/12/09 08:48:02;;;;;;;16.95;6.00;;;;;;;-146.64;100.00;39820.81;5055236;28;20431;-74
2021/12/09 08:50:33;;;;;;;22.42;6.93;;;;;;;-146.64;100.00;39779.88;5075055;28;20082;-75
2021/12/09 08:53:00;;;;;;;17.13;6.47;;;;;;;-146.64;100.00;39796.25;5065287;28;20037;-73
2021/12/09 08:55:25;;;;;;;13.93;6.03;;;;;;;-146.64;100.00;39796.25;5064914;28;20017;-74
2021/12/09 08:57:51;;;;;;;18.30;6.00;;;;;;;-146.64;100.00;39814.69;5049694;28;20082;-74
2021/12/09 09:00:18;;;;;;;11.00;4.95;;;;;;;-146.64;100.00;39779.88;5064030;28;20028;-73
2021/12/09 09:02:46;;;;;;;17.27;7.10;;;;;;;-146.64;100.00;39775.78;5064605;28;20038;-73
2021/12/09 09:05:13;;;;;;;15.27;6.50;;;;;;;-146.64;100.00;39738.94;5040101;28;20291;-73
2021/12/09 09:07:40;;;;;;;17.63;6.93;;;;;;;-146.64;100.00;39765.56;5055253;28;20086;-74
2021/12/09 09:10:06;;;;;;;20.65;7.15;;;;;;;-146.64;100.00;39714.38;5061972;28;20024;-74
2021/12/09 09:12:33;;;;;;;18.20;6.57;;;;;;;-146.64;100.00;39747.13;5051482;28;20083;-73
2021/12/09 09:14:58;;;;;;;13.55;6.85;;;;;;;-146.64;100.00;39702.09;5057067;28;20032;-73
2021/12/09 09:17:24;;;;;;;20.05;6.93;;;;;;;-146.64;100.00;39763.50;5060285;28;20033;-74
2021/12/09 09:19:49;;;;;;;20.83;7.97;;;;;;;-146.64;100.00;39736.91;5053180;28;20020;-74
2021/12/09 09:22:14;;;;;;;19.42;7.10;;;;;;;-146.64;100.00;39771.69;5056837;28;20028;-74
2021/12/09 09:24:40;;;;;;;18.30;6.63;;;;;;;-146.64;100.00;39710.28;5057029;28;20078;-74
2021/12/09 09:27:06;;;;;;;19.57;7.03;;;;;;;-146.64;100.00;39730.75;5043678;28;20100;-73
2021/12/09 09:29:34;;;;;;;27.70;8.48;;;;;;;-146.64;100.00;39722.56;5058487;28;20447;-73
2021/12/09 09:31:59;;;;;;;22.98;8.32;;;;;;;-146.64;100.00;39726.66;5052886;28;20035;-73
2021/12/09 09:34:25;;;;;;;23.05;8.85;;;;;;;-146.64;100.00;39702.09;5066349;28;20036;-73
2021/12/09 09:36:50;;;;;;;17.58;9.23;;;;;;;-146.64;100.00;39691.88;5062792;28;20460;-74
2021/12/09 09:39:22;;;;;;;23.70;9.10;;;;;;;-146.64;100.00;39693.91;5065574;28;20115;-73
2021/12/09 09:41:58;;;;;;;23.70;9.18;;;;;;;-146.64;100.00;39702.09;5063422;28;20113;-73
2021/12/09 09:44:29;;;;;;;24.00;8.90;;;;;;;-146.64;100.00;39710.28;5051365;28;20033;-73
2021/12/09 09:47:00;;;;;;;28.80;10.00;;;;;;;-146.64;100.00;39710.28;5066466;28;20043;-73
2021/12/09 09:49:25;;;;;;;26.67;9.90;;;;;;;-146.64;100.00;39702.09;5060366;28;20511;-73
2021/12/09 09:51:51;;;;;;;26.40;9.32;;;;;;;-146.64;100.00;39599.75;5060944;28;20072;-73
2021/12/09 09:54:17;;;;;;;22.98;11.40;;;;;;;-146.64;100.00;39693.91;5052414;28;20032;-73
2021/12/09 09:56:42;;;;;;;22.83;10.75;;;;;;;-146.64;100.00;39661.16;5062587;28;20035;-73
2021/12/09 09:59:10;;;;;;;30.92;11.52;;;;;;;-146.64;100.00;39677.53;5053394;28;20028;-73
2021/12/09 10:01:36;;;;;;;;;;;;;;;-146.64;100.00;39669.34;5061852;28;20511;-73
2021/12/09 10:04:15;;;;;;;27.92;10.38;;;;;;;-146.64;100.00;39650.94;5066494;28;19977;-73
2021/12/09 10:06:43;;;;;;;28.95;11.45;;;;;;;-146.64;100.00;39704.16;5061907;28;20368;-74
2021/12/09 10:09:10;;;;;;;28.75;11.32;;;;;;;-146.64;100.00;39669.34;5043820;28;20107;-74
2021/12/09 10:11:35;;;;;;;25.20;11.55;;;;;;;-146.64;100.00;39675.50;5059248;28;20036;-74
2021/12/09 10:14:09;;;;;;;25.73;12.65;;;;;;;-146.64;100.00;39667.31;5048221;28;20044;-73
2021/12/09 10:16:35;;;;;;;28.40;12.48;;;;;;;-146.64;100.00;39648.88;5048278;28;20094;-74
2021/12/09 10:19:00;;;;;;;32.33;12.23;;;;;;;-146.64;100.00;39650.94;5068013;28;20032;-75
2021/12/09 10:21:29;;;;;;;29.42;12.35;;;;;;;-146.64;100.00;39652.97;5044636;28;20143;-74
2021/12/09 10:24:03;;;;;;;26.38;12.20;;;;;;;-146.64;100.00;39657.06;5060298;28;20029;-74
2021/12/09 10:26:37;;;;;;;29.55;12.98;;;;;;;-146.64;100.00;39667.31;5064418;28;20113;-73
2021/12/09 10:29:29;;;;;;;27.17;11.95;;;;;;;-146.64;100.00;39655.03;5044443;28;20128;-73
2021/12/09 10:32:01;;;;;;;31.60;12.65;;;;;;;-146.64;100.00;39636.59;5035079;28;20041;-73
2021/12/09 10:34:41;;;;;;;28.05;11.90;;;;;;;-146.64;100.00;39669.34;5054449;28;20140;-73
2021/12/09 10:37:20;;;;;;;28.65;13.80;;;;;;;-146.64;100.00;39657.06;5053175;28;20047;-73
2021/12/09 10:39:47;;;;;;;22.80;11.55;;;;;;;-146.64;100.00;39657.06;5049352;28;20120;-73
2021/12/09 10:42:20;;;;;;;27.05;13.50;;;;;;;-146.64;100.00;39652.97;5049315;28;20017;-73
2021/12/09 10:44:50;;;;;;;25.30;13.88;;;;;;;-146.64;100.00;39648.88;5063258;28;20036;-73
2021/12/09 10:50:20;;;;;;;31.38;14.40;;;;;;;-146.64;100.00;39652.97;5060734;28;20372;-73
2021/12/09 10:52:51;;;;;;;25.85;14.50;;;;;;;-146.64;100.00;39632.50;5060452;28;20727;-73
2021/12/09 10:55:25;;;;;;;23.75;14.20;;;;;;;-146.64;100.00;39669.34;5052691;28;20452;-73
2021/12/09 10:57:57;;;;;;;30.73;15.98;;;;;;;-146.64;100.00;39671.41;5064078;28;20035;-73
2021/12/09 11:00:34;;;;;;;35.88;16.65;;;;;;;-146.64;100.00;39673.44;5062993;28;20028;-74
2021/12/09 11:03:13;;;;;;;30.90;16.10;;;;;;;-146.64;100.00;39677.53;5048528;28;20025;-73
2021/12/09 11:05:58;;;;;;;31.27;15.18;;;;;;;-146.64;100.00;39689.81;5048165;28;20036;-73